Terminal Aerodrome Forecast
Issued by NWS

Home | Current Version | Previous Version | Text Only | Print | Product List | Glossary On
Versions: 1 2 3 4 5 6 7 8 9 10 11 12 13 14
000
FTUS45 KTFX 301100
TAFBZN
TAF
KBZN 301133Z 3012/0112 18007KT P6SM VCSH SCT030 BKN050
      TEMPO 3012/3015 -SHRA BKN030
     FM301600 26009KT P6SM VCSH SCT030 BKN080
      TEMPO 3017/3020 -SHRA BKN030
     FM302200 30009KT P6SM VCSH SCT030 BKN050
     FM010100 VRB06KT P6SM SCT050 BKN120=

USA.gov is the U.S. government's official web portal to all federal, state and local government web resources and services.